Time;durP1;ratioP1;P1;durP2;ratioP2;P2;SDS_P1;SDS_P2;PMS_P1;PMS_P2;Temp;Humidity;BMP_temperature;BMP_pressure;BME280_temperature;BME280_humidity;BME280_pressure;Samples;Min_cycle;Max_cycle;Signal;HPM_P1;HPM_P2
2021/07/17 00:01:21;;;;;;;27.75;9.45;;;19.10;99.90;;;;;;5050931;28;20021;-82
2021/07/17 00:03:47;;;;;;;20.40;9.45;;;19.10;99.90;;;;;;5050621;28;20025;-82
2021/07/17 00:06:13;;;;;;;24.30;8.85;;;19.10;99.90;;;;;;5050533;28;20533;-84
2021/07/17 00:08:38;;;;;;;25.17;9.05;;;19.10;99.90;;;;;;5051411;28;20389;-85
2021/07/17 00:11:05;;;;;;;24.30;9.45;;;19.10;99.90;;;;;;5055478;28;20345;-85
2021/07/17 00:13:31;;;;;;;21.08;10.20;;;19.10;99.90;;;;;;5055497;28;20078;-83
2021/07/17 00:15:57;;;;;;;23.42;9.30;;;19.10;99.90;;;;;;5055327;28;20485;-83
2021/07/17 00:18:23;;;;;;;25.48;9.25;;;19.10;99.90;;;;;;5053988;28;20495;-85
2021/07/17 00:20:50;;;;;;;28.05;10.07;;;19.10;99.90;;;;;;5054650;28;20028;-84
2021/07/17 00:23:17;;;;;;;31.98;10.18;;;19.10;99.90;;;;;;5055395;28;20136;-83
2021/07/17 00:25:43;;;;;;;22.73;9.20;;;19.10;99.90;;;;;;5055703;28;20017;-83
2021/07/17 00:28:09;;;;;;;22.35;9.15;;;19.00;99.90;;;;;;5053660;28;20393;-84
2021/07/17 00:30:35;;;;;;;30.92;9.85;;;19.00;99.90;;;;;;5053443;28;20025;-84
2021/07/17 00:33:01;;;;;;;21.42;9.20;;;19.00;99.90;;;;;;5053683;28;20434;-83
2021/07/17 00:35:27;;;;;;;22.58;8.95;;;19.00;99.90;;;;;;5054356;28;20025;-85
2021/07/17 00:37:53;;;;;;;29.55;10.25;;;19.00;99.90;;;;;;5055581;28;20481;-85
2021/07/17 00:40:21;;;;;;;25.48;9.27;;;19.00;99.90;;;;;;5055822;28;20481;-83
2021/07/17 00:42:48;;;;;;;20.27;8.65;;;19.00;99.90;;;;;;5053882;28;20025;-84
2021/07/17 00:45:14;;;;;;;22.70;9.23;;;18.90;99.90;;;;;;5054370;28;20033;-84
2021/07/17 00:47:41;;;;;;;26.02;10.05;;;19.00;99.90;;;;;;5055745;28;20489;-85
2021/07/17 00:50:09;;;;;;;23.58;10.27;;;19.00;99.90;;;;;;5054852;28;20033;-83
2021/07/17 00:52:35;;;;;;;27.48;10.20;;;18.90;99.90;;;;;;5070599;28;20025;-83
2021/07/17 00:55:03;;;;;;;20.38;9.27;;;18.90;99.90;;;;;;5071069;28;20032;-82
2021/07/17 00:57:35;;;;;;;23.08;9.05;;;18.90;99.90;;;;;;5055980;28;20052;-83
2021/07/17 01:00:04;;;;;;;24.55;9.45;;;18.90;99.90;;;;;;5056028;28;20028;-83
2021/07/17 01:02:35;;;;;;;24.38;9.32;;;18.90;99.90;;;;;;5054313;28;20047;-86
2021/07/17 01:05:01;;;;;;;24.95;9.68;;;18.90;99.90;;;;;;5055050;28;20025;-83
2021/07/17 01:07:27;;;;;;;29.08;10.40;;;18.90;99.90;;;;;;5053975;28;20033;-85
2021/07/17 01:09:53;;;;;;;22.40;9.18;;;18.90;99.90;;;;;;5070758;28;20108;-83
2021/07/17 01:12:20;;;;;;;24.42;9.05;;;18.90;99.90;;;;;;5055761;28;20021;-86
2021/07/17 01:14:46;;;;;;;25.27;10.75;;;18.90;99.90;;;;;;5052646;28;20099;-83
2021/07/17 01:17:13;;;;;;;21.63;9.35;;;18.90;99.90;;;;;;5055361;28;20324;-83
2021/07/17 01:19:39;;;;;;;28.75;9.90;;;18.90;99.90;;;;;;5054802;28;20485;-85
2021/07/17 01:22:04;;;;;;;25.63;9.93;;;18.90;99.90;;;;;;5055471;28;20025;-84
2021/07/17 01:24:30;;;;;;;29.63;9.82;;;18.90;99.90;;;;;;5054317;28;20025;-82
2021/07/17 01:26:56;;;;;;;28.42;9.93;;;18.90;99.90;;;;;;5055897;28;20029;-85
2021/07/17 01:29:22;;;;;;;27.48;9.80;;;18.90;99.90;;;;;;5054110;28;20537;-85
2021/07/17 01:31:49;;;;;;;25.58;10.20;;;18.80;99.90;;;;;;5054657;28;20028;-84
2021/07/17 01:34:15;;;;;;;25.95;9.25;;;18.90;99.90;;;;;;5071982;28;20025;-84
2021/07/17 01:36:41;;;;;;;25.90;9.48;;;18.90;99.90;;;;;;5056668;28;20420;-84
2021/07/17 01:39:07;;;;;;;25.88;9.75;;;18.80;99.90;;;;;;5055745;28;20078;-85
2021/07/17 01:41:33;;;;;;;22.17;10.02;;;18.80;99.90;;;;;;5054802;28;20478;-83
2021/07/17 01:43:59;;;;;;;23.35;9.15;;;18.80;99.90;;;;;;5072301;28;20021;-83
2021/07/17 01:46:27;;;;;;;25.08;10.07;;;18.80;99.90;;;;;;5055472;28;20044;-85
2021/07/17 01:48:56;;;;;;;30.63;9.95;;;18.80;99.90;;;;;;5055241;28;20055;-83
2021/07/17 01:51:23;;;;;;;28.23;10.48;;;18.80;99.90;;;;;;5058092;28;20033;-85
2021/07/17 01:53:50;;;;;;;32.53;10.40;;;18.70;99.90;;;;;;5072836;28;20029;-85
2021/07/17 01:56:16;;;;;;;27.17;10.50;;;18.70;99.90;;;;;;5057220;28;20106;-83
2021/07/17 01:58:42;;;;;;;29.00;10.25;;;18.70;99.90;;;;;;5055465;28;20349;-83
2021/07/17 02:01:09;;;;;;;24.48;10.50;;;18.70;99.90;;;;;;5071138;28;20029;-84
2021/07/17 02:03:36;;;;;;;35.60;10.18;;;18.70;99.90;;;;;;5057543;28;20059;-85
2021/07/17 02:06:03;;;;;;;23.33;9.57;;;18.60;99.90;;;;;;5072695;28;20039;-85
2021/07/17 02:08:30;;;;;;;24.27;10.27;;;18.70;99.90;;;;;;5056820;28;20496;-84
2021/07/17 02:10:56;;;;;;;35.67;11.52;;;18.70;99.90;;;;;;5073122;28;20043;-85
2021/07/17 02:13:21;;;;;;;24.63;9.88;;;18.70;99.90;;;;;;5075041;28;20461;-84
2021/07/17 02:15:52;;;;;;;21.48;8.65;;;18.60;99.90;;;;;;5058619;28;20021;-85
2021/07/17 02:18:27;;;;;;;28.70;9.85;;;18.60;99.90;;;;;;5054626;28;20025;-83
2021/07/17 02:20:53;;;;;;;25.42;9.60;;;18.60;99.90;;;;;;5050426;28;20115;-82
2021/07/17 02:23:19;;;;;;;24.38;9.98;;;18.60;99.90;;;;;;5051652;28;20079;-82
2021/07/17 02:25:44;;;;;;;22.73;10.20;;;18.60;99.90;;;;;;5050456;28;20028;-83
2021/07/17 02:28:10;;;;;;;19.15;9.63;;;18.60;99.90;;;;;;5067247;28;20388;-83
2021/07/17 02:30:36;;;;;;;27.38;10.18;;;18.60;99.90;;;;;;5050803;28;20033;-83
2021/07/17 02:33:02;;;;;;;27.65;10.40;;;18.70;99.90;;;;;;5052173;28;20104;-82
2021/07/17 02:35:27;;;;;;;22.77;9.40;;;18.70;99.90;;;;;;5067259;28;20036;-82
2021/07/17 02:37:53;;;;;;;18.92;9.18;;;18.70;99.90;;;;;;5051850;28;20029;-83
2021/07/17 02:40:19;;;;;;;28.42;10.18;;;18.70;99.90;;;;;;5050308;28;20024;-84
2021/07/17 02:42:44;;;;;;;23.77;10.38;;;18.60;99.90;;;;;;5051920;28;20028;-83
2021/07/17 02:45:12;;;;;;;25.25;10.85;;;18.60;99.90;;;;;;5051899;28;20098;-82
2021/07/17 02:47:38;;;;;;;22.58;9.85;;;18.60;99.90;;;;;;5066500;28;20112;-82
2021/07/17 02:50:05;;;;;;;27.88;11.00;;;18.60;99.90;;;;;;5049635;28;20491;-82
2021/07/17 02:52:30;;;;;;;23.83;9.60;;;18.60;99.90;;;;;;5066342;28;20060;-84
2021/07/17 02:54:56;;;;;;;19.98;9.38;;;18.60;99.90;;;;;;5048767;28;20056;-82
2021/07/17 02:57:22;;;;;;;26.95;10.07;;;18.60;99.90;;;;;;5050840;28;20434;-83
2021/07/17 02:59:47;;;;;;;18.70;9.30;;;18.60;99.90;;;;;;5049744;28;20025;-82
2021/07/17 03:02:13;;;;;;;26.38;10.25;;;18.60;99.90;;;;;;5051329;28;20623;-84
2021/07/17 03:04:38;;;;;;;21.70;9.15;;;18.60;99.90;;;;;;5066731;28;20111;-84
2021/07/17 03:07:04;;;;;;;20.52;9.20;;;18.60;99.90;;;;;;5049942;28;20025;-83
2021/07/17 03:09:30;;;;;;;25.08;8.70;;;18.60;99.90;;;;;;5050661;28;20021;-82
2021/07/17 03:11:55;;;;;;;17.88;9.30;;;18.60;99.90;;;;;;5050935;28;20025;-84
2021/07/17 03:14:21;;;;;;;25.20;9.30;;;18.70;99.90;;;;;;5050229;28;20021;-84
2021/07/17 03:16:47;;;;;;;23.10;9.38;;;18.60;99.90;;;;;;5050839;28;20025;-83
2021/07/17 03:19:12;;;;;;;21.10;9.30;;;18.60;99.90;;;;;;5050962;28;20037;-82
2021/07/17 03:21:39;;;;;;;24.73;9.57;;;18.60;99.90;;;;;;5050936;28;20032;-82
2021/07/17 03:24:05;;;;;;;22.42;9.73;;;18.70;99.90;;;;;;5052086;28;20083;-84
2021/07/17 03:26:31;;;;;;;21.55;8.70;;;18.60;99.90;;;;;;5052645;28;20037;-82
2021/07/17 03:28:57;;;;;;;23.02;9.55;;;18.60;99.90;;;;;;5051079;28;20024;-84
2021/07/17 03:31:27;;;;;;;21.17;9.48;;;18.60;99.90;;;;;;5051500;28;20028;-83
2021/07/17 03:33:53;;;;;;;23.95;9.48;;;18.60;99.90;;;;;;5050000;28;20083;-84
2021/07/17 03:36:19;;;;;;;19.50;8.80;;;18.60;99.90;;;;;;5051212;28;20029;-82
2021/07/17 03:38:44;;;;;;;20.70;9.50;;;18.60;99.90;;;;;;5052534;28;20116;-84
2021/07/17 03:41:10;;;;;;;23.95;9.95;;;18.60;99.90;;;;;;5052183;28;20060;-84
2021/07/17 03:43:35;;;;;;;22.77;8.93;;;18.60;99.90;;;;;;5054140;28;20475;-84
2021/07/17 03:46:01;;;;;;;26.80;10.52;;;18.60;99.90;;;;;;5057080;28;20048;-83
2021/07/17 03:48:27;;;;;;;33.47;11.98;;;18.60;99.90;;;;;;5054487;28;20174;-82
2021/07/17 03:50:52;;;;;;;24.02;9.77;;;18.60;99.90;;;;;;5071156;28;20168;-85
2021/07/17 03:53:18;;;;;;;31.75;10.40;;;18.50;99.90;;;;;;5055070;28;20075;-85
2021/07/17 03:55:43;;;;;;;22.33;10.60;;;18.60;99.90;;;;;;5054756;28;20079;-84
2021/07/17 03:58:09;;;;;;;28.38;9.70;;;18.60;99.90;;;;;;5056434;28;20048;-83
2021/07/17 04:00:35;;;;;;;24.98;10.93;;;18.60;99.90;;;;;;5056045;28;20029;-84
2021/07/17 04:03:03;;;;;;;28.52;9.98;;;18.60;99.90;;;;;;5056384;28;20612;-85
2021/07/17 04:05:29;;;;;;;23.13;9.75;;;18.60;99.90;;;;;;5054912;28;20025;-82
2021/07/17 04:07:56;;;;;;;21.38;9.45;;;18.50;99.90;;;;;;5056013;28;20025;-82
2021/07/17 04:10:22;;;;;;;23.83;9.38;;;18.50;99.90;;;;;;5054051;28;20024;-82
2021/07/17 04:12:48;;;;;;;22.42;9.63;;;18.60;99.90;;;;;;5054704;28;20024;-84
2021/07/17 04:15:14;;;;;;;22.10;9.20;;;18.60;99.90;;;;;;5054311;28;20036;-84
2021/07/17 04:17:40;;;;;;;24.38;10.10;;;18.60;99.90;;;;;;5054230;28;20025;-85
2021/07/17 04:20:07;;;;;;;25.20;10.15;;;18.50;99.90;;;;;;5053852;28;20512;-82
2021/07/17 04:22:33;;;;;;;19.42;8.95;;;18.50;99.90;;;;;;5054107;28;20021;-82
2021/07/17 04:24:59;;;;;;;19.65;8.40;;;18.50;99.90;;;;;;5054355;28;20048;-83
2021/07/17 04:27:25;;;;;;;23.75;10.10;;;18.50;99.90;;;;;;5054573;28;20033;-84
2021/07/17 04:29:51;;;;;;;21.08;8.85;;;18.60;99.90;;;;;;5054261;28;20032;-82
2021/07/17 04:32:16;;;;;;;24.75;9.80;;;18.60;99.90;;;;;;5052863;28;20022;-82
2021/07/17 04:34:42;;;;;;;21.30;9.32;;;18.50;99.90;;;;;;5053149;28;20024;-84
2021/07/17 04:37:08;;;;;;;23.52;9.88;;;18.50;99.90;;;;;;5053405;28;20434;-82
2021/07/17 04:39:33;;;;;;;29.38;9.38;;;18.50;99.90;;;;;;5053352;28;20052;-85
2021/07/17 04:41:59;;;;;;;23.35;10.38;;;18.60;99.90;;;;;;5053838;28;20499;-82
2021/07/17 04:44:25;;;;;;;26.38;9.82;;;18.50;99.90;;;;;;5053384;28;20021;-83
2021/07/17 04:46:51;;;;;;;26.17;9.90;;;18.50;99.90;;;;;;5053791;28;20412;-83
2021/07/17 04:49:16;;;;;;;28.08;11.18;;;18.50;99.90;;;;;;5052687;28;20029;-82
2021/07/17 04:51:42;;;;;;;24.20;9.98;;;18.50;99.90;;;;;;5054901;28;20029;-84
2021/07/17 04:54:08;;;;;;;24.88;10.30;;;18.50;99.90;;;;;;5052427;28;20085;-85
2021/07/17 04:56:33;;;;;;;23.92;10.02;;;18.50;99.90;;;;;;5054293;28;20056;-82
2021/07/17 04:58:59;;;;;;;23.48;10.00;;;18.50;99.90;;;;;;5069401;28;20032;-83
2021/07/17 05:01:24;;;;;;;32.67;10.27;;;18.50;99.90;;;;;;5069769;28;20021;-83
2021/07/17 05:03:50;;;;;;;20.83;9.40;;;18.50;99.90;;;;;;5070135;28;20509;-83
2021/07/17 05:06:16;;;;;;;21.73;9.60;;;18.50;99.90;;;;;;5052258;28;20067;-85
2021/07/17 05:08:41;;;;;;;22.73;9.18;;;18.50;99.90;;;;;;5051664;28;20498;-84
2021/07/17 05:11:07;;;;;;;28.70;9.98;;;18.50;99.90;;;;;;5051911;28;20029;-84
2021/07/17 05:13:34;;;;;;;33.30;10.82;;;18.50;99.90;;;;;;5064844;28;20059;-85
2021/07/17 05:16:00;;;;;;;26.98;11.90;;;18.50;99.90;;;;;;5091514;28;20408;-85
2021/07/17 05:18:25;;;;;;;31.75;12.02;;;18.50;99.90;;;;;;5091410;28;20024;-83
2021/07/17 05:20:51;;;;;;;22.85;10.38;;;18.50;99.90;;;;;;5090634;28;20028;-83
2021/07/17 05:23:17;;;;;;;25.33;10.52;;;18.50;99.90;;;;;;5091024;28;20115;-84
2021/07/17 05:25:44;;;;;;;25.90;9.70;;;18.50;99.90;;;;;;5091138;28;20116;-82
2021/07/17 05:28:10;;;;;;;21.98;9.27;;;18.40;99.90;;;;;;5091044;28;20032;-85
2021/07/17 05:30:36;;;;;;;25.75;10.43;;;18.50;99.90;;;;;;5091991;28;20149;-84
2021/07/17 05:33:02;;;;;;;22.30;9.60;;;18.50;99.90;;;;;;5093085;28;20039;-82
2021/07/17 05:35:28;;;;;;;32.00;11.13;;;18.50;99.90;;;;;;5091937;28;20028;-82
2021/07/17 05:37:55;;;;;;;21.67;10.05;;;18.40;99.90;;;;;;5093137;28;20028;-83
2021/07/17 05:40:21;;;;;;;23.98;10.02;;;18.50;99.90;;;;;;5091046;28;20028;-83
2021/07/17 05:42:46;;;;;;;26.05;9.95;;;18.50;99.90;;;;;;5075306;28;20033;-84
2021/07/17 05:45:12;;;;;;;28.10;10.15;;;18.50;99.90;;;;;;5068650;28;20052;-83
2021/07/17 05:47:38;;;;;;;23.80;9.70;;;18.50;99.90;;;;;;5071656;28;20402;-83
2021/07/17 05:50:04;;;;;;;23.90;9.27;;;18.50;99.90;;;;;;5071193;28;20050;-85
2021/07/17 05:52:30;;;;;;;26.48;10.68;;;18.60;99.90;;;;;;5071401;28;20539;-83
2021/07/17 05:54:56;;;;;;;23.38;10.80;;;18.60;99.90;;;;;;5088082;28;20028;-82
2021/07/17 05:57:22;;;;;;;22.17;9.45;;;18.50;99.90;;;;;;5072720;28;20035;-83
2021/07/17 05:59:47;;;;;;;23.30;9.52;;;18.60;99.90;;;;;;5071426;28;20063;-83
2021/07/17 06:02:13;;;;;;;28.17;11.30;;;18.60;99.90;;;;;;5072587;28;20488;-84
2021/07/17 06:04:39;;;;;;;29.25;11.20;;;18.50;99.90;;;;;;5071605;28;20036;-82
2021/07/17 06:07:05;;;;;;;27.92;10.95;;;18.60;99.90;;;;;;5069795;28;20397;-84
2021/07/17 06:09:30;;;;;;;29.75;10.90;;;18.60;99.90;;;;;;5072259;28;20130;-83
2021/07/17 06:11:56;;;;;;;31.10;11.52;;;18.60;99.90;;;;;;5071905;28;20035;-83
2021/07/17 06:14:22;;;;;;;27.02;10.95;;;18.60;99.90;;;;;;5079528;28;20566;-83
2021/07/17 06:16:48;;;;;;;25.27;10.80;;;18.60;99.90;;;;;;5083344;28;20024;-83
2021/07/17 06:19:14;;;;;;;23.27;10.18;;;18.60;99.90;;;;;;5082012;28;20059;-83
2021/07/17 06:21:41;;;;;;;27.45;10.30;;;18.60;99.90;;;;;;5080211;28;20020;-85
2021/07/17 06:24:06;;;;;;;28.17;10.27;;;18.60;99.90;;;;;;5080555;28;20104;-85
2021/07/17 06:26:33;;;;;;;28.27;9.82;;;18.70;99.90;;;;;;5095642;28;20063;-84
2021/07/17 06:28:58;;;;;;;22.15;9.50;;;18.70;99.90;;;;;;5078705;28;20029;-84
2021/07/17 06:31:24;;;;;;;31.13;10.60;;;18.60;99.90;;;;;;5081099;28;20159;-87
2021/07/17 06:33:50;;;;;;;29.52;10.50;;;18.60;99.90;;;;;;5104303;28;20025;-83
2021/07/17 06:36:17;;;;;;;25.00;9.60;;;18.50;99.90;;;;;;5080300;28;20020;-85
2021/07/17 06:38:43;;;;;;;29.63;10.77;;;18.50;99.90;;;;;;5077205;28;20092;-83
2021/07/17 06:41:09;;;;;;;26.00;9.82;;;18.50;99.90;;;;;;5078073;28;20017;-84
2021/07/17 06:43:36;;;;;;;27.42;10.73;;;18.40;99.90;;;;;;5086476;28;20112;-82
2021/07/17 06:46:02;;;;;;;27.55;10.32;;;18.50;99.90;;;;;;5102040;28;20029;-85
2021/07/17 06:48:27;;;;;;;21.10;9.15;;;18.50;99.90;;;;;;5086902;28;20024;-86
2021/07/17 06:50:54;;;;;;;22.45;10.80;;;18.50;99.90;;;;;;5083818;28;20370;-84
2021/07/17 06:53:20;;;;;;;29.63;10.55;;;18.60;99.90;;;;;;5086369;28;20025;-83
2021/07/17 06:55:46;;;;;;;32.65;11.52;;;18.60;99.90;;;;;;5085652;28;20020;-83
2021/07/17 06:58:11;;;;;;;24.10;10.30;;;18.60;99.90;;;;;;5102227;28;20377;-84
2021/07/17 07:00:37;;;;;;;22.15;10.20;;;18.60;99.90;;;;;;5084684;28;20020;-82
2021/07/17 07:03:04;;;;;;;33.17;10.27;;;18.60;99.90;;;;;;5085722;28;20531;-82
2021/07/17 07:05:30;;;;;;;26.20;10.50;;;18.60;99.90;;;;;;5083787;28;20032;-85
2021/07/17 07:07:55;;;;;;;28.00;10.77;;;18.70;99.90;;;;;;5099087;28;20182;-83
2021/07/17 07:10:22;;;;;;;21.50;9.57;;;18.60;99.90;;;;;;5083962;28;20029;-82
2021/07/17 07:12:49;;;;;;;29.55;10.60;;;18.70;99.90;;;;;;5083704;28;20044;-84
2021/07/17 07:15:15;;;;;;;31.33;11.18;;;18.70;99.90;;;;;;5085010;28;20021;-82
2021/07/17 07:17:40;;;;;;;28.10;10.95;;;18.70;99.90;;;;;;5100197;28;20109;-82
2021/07/17 07:20:08;;;;;;;25.30;9.45;;;18.80;99.90;;;;;;5085160;28;20503;-84
2021/07/17 07:22:34;;;;;;;23.65;9.85;;;18.80;99.90;;;;;;5086196;28;20051;-88
2021/07/17 07:24:59;;;;;;;21.60;9.70;;;18.80;99.90;;;;;;5090449;28;20028;-84
2021/07/17 07:27:25;;;;;;;31.20;11.32;;;18.80;99.90;;;;;;5084960;28;20029;-84
2021/07/17 07:29:51;;;;;;;22.63;9.20;;;18.80;99.90;;;;;;5086023;28;20048;-85
2021/07/17 07:32:17;;;;;;;21.88;10.10;;;18.90;99.90;;;;;;5085184;28;20031;-86
2021/07/17 07:34:43;;;;;;;26.83;9.63;;;18.90;99.90;;;;;;5103883;28;20020;-85
2021/07/17 07:37:08;;;;;;;22.30;9.60;;;19.00;99.90;;;;;;5086255;28;20028;-87
2021/07/17 07:39:34;;;;;;;26.75;9.90;;;19.00;99.90;;;;;;5085352;28;20024;-84
2021/07/17 07:42:00;;;;;;;22.52;9.32;;;19.00;99.90;;;;;;5085280;28;20036;-84
2021/07/17 07:44:25;;;;;;;23.88;10.23;;;19.10;99.90;;;;;;5084761;28;20029;-84
2021/07/17 07:46:53;;;;;;;26.83;9.18;;;19.10;99.90;;;;;;5103206;28;20040;-86
2021/07/17 07:49:19;;;;;;;20.23;8.85;;;19.10;99.90;;;;;;5086463;28;20032;-85
2021/07/17 07:51:44;;;;;;;23.75;8.95;;;19.10;99.90;;;;;;5083804;28;20028;-84
2021/07/17 07:54:13;;;;;;;25.15;8.93;;;19.10;99.90;;;;;;5084433;28;20035;-84
2021/07/17 07:56:39;;;;;;;17.05;8.20;;;19.20;99.90;;;;;;5085704;28;20020;-84
2021/07/17 07:59:04;;;;;;;15.52;7.63;;;19.30;99.90;;;;;;5085507;28;20058;-87
2021/07/17 08:01:30;;;;;;;22.95;8.52;;;19.30;99.90;;;;;;5085116;28;20044;-85
2021/07/17 08:03:55;;;;;;;20.60;8.95;;;19.40;99.90;;;;;;5089404;28;20037;-88
2021/07/17 08:06:21;;;;;;;22.58;8.80;;;19.40;99.90;;;;;;5088149;28;20059;-85
2021/07/17 08:08:47;;;;;;;21.65;8.20;;;19.40;99.90;;;;;;5085236;28;20088;-87
2021/07/17 08:11:12;;;;;;;21.80;9.02;;;19.40;99.90;;;;;;5088101;28;20035;-87
2021/07/17 08:13:38;;;;;;;22.35;7.78;;;19.40;99.90;;;;;;5090036;28;20058;-88
2021/07/17 08:16:04;;;;;;;19.60;7.60;;;19.50;99.90;;;;;;5085447;28;20080;-91
2021/07/17 08:18:30;;;;;;;18.55;7.70;;;19.40;99.90;;;;;;5087631;28;20032;-86
2021/07/17 08:20:56;;;;;;;20.58;8.23;;;19.50;99.90;;;;;;5087228;28;20074;-86
2021/07/17 08:23:23;;;;;;;20.50;7.63;;;19.50;99.90;;;;;;5088034;28;20055;-88
2021/07/17 08:25:49;;;;;;;17.00;7.28;;;19.60;99.90;;;;;;5090836;28;20020;-85
2021/07/17 08:28:15;;;;;;;20.02;8.73;;;19.70;99.90;;;;;;5090243;28;20290;-83
2021/07/17 08:30:41;;;;;;;13.38;7.20;;;19.70;99.90;;;;;;5090017;28;20030;-87
2021/07/17 08:33:07;;;;;;;16.10;7.32;;;19.80;99.90;;;;;;5102600;28;20057;-86
2021/07/17 08:35:33;;;;;;;17.92;6.72;;;19.80;99.90;;;;;;5114891;28;20043;-88
2021/07/17 08:37:59;;;;;;;16.25;7.05;;;19.90;99.90;;;;;;5113047;28;20020;-89
2021/07/17 08:40:24;;;;;;;18.15;6.82;;;20.00;99.90;;;;;;5111562;28;20043;-85
2021/07/17 08:42:51;;;;;;;17.98;7.65;;;20.10;99.90;;;;;;5102889;28;20039;-89
2021/07/17 08:45:18;;;;;;;21.63;7.72;;;20.10;99.90;;;;;;5102800;28;20028;-90
2021/07/17 08:47:45;;;;;;;21.20;7.15;;;20.20;99.90;;;;;;5112364;28;20044;-85
2021/07/17 08:50:16;;;;;;;21.42;6.57;;;20.10;99.90;;;;;;5112296;28;20032;-87
2021/07/17 08:52:42;;;;;;;18.75;7.70;;;20.00;99.90;;;;;;5095651;28;20028;-86
2021/07/17 08:55:10;;;;;;;19.30;6.28;;;20.00;99.90;;;;;;5092506;28;20024;-84
2021/07/17 08:57:38;;;;;;;18.58;6.50;;;19.90;99.90;;;;;;5092106;28;20441;-91
2021/07/17 09:00:51;;;;;;;14.98;6.25;;;20.00;99.90;;;;;;5092047;28;20024;-89
2021/07/17 09:03:19;;;;;;;14.23;6.63;;;20.00;99.90;;;;;;5031092;28;20140;-86
2021/07/17 09:05:48;;;;;;;23.03;6.23;;;20.10;99.90;;;;;;5014045;28;20037;-86
2021/07/17 09:08:17;;;;;;;17.70;6.38;;;20.20;99.90;;;;;;5051585;28;20112;-88
2021/07/17 09:10:51;;;;;;;13.55;5.47;;;20.20;99.90;;;;;;5091475;28;20059;-88
2021/07/17 09:13:31;;;;;;;14.77;5.95;;;20.30;99.90;;;;;;5092828;28;20028;-88
2021/07/17 09:16:11;;;;;;;22.60;6.57;;;20.40;99.90;;;;;;5091491;28;20551;-86
2021/07/17 09:18:46;;;;;;;13.30;5.88;;;20.50;99.90;;;;;;5091649;28;20020;-87
2021/07/17 09:21:31;;;;;;;17.77;6.15;;;20.50;99.90;;;;;;5091711;28;20031;-87
2021/07/17 09:24:08;;;;;;;14.65;5.72;;;20.50;99.90;;;;;;5094377;28;20123;-86
2021/07/17 09:26:36;;;;;;;19.17;6.88;;;20.50;99.90;;;;;;5095114;28;20491;-85
2021/07/17 09:29:02;;;;;;;18.70;7.05;;;20.50;99.90;;;;;;5092698;28;20043;-85
2021/07/17 09:31:52;;;;;;;19.17;6.57;;;20.50;99.90;;;;;;5094611;28;20032;-84
2021/07/17 09:34:22;;;;;;;15.95;5.40;;;20.50;99.90;;;;;;5094984;28;20040;-84
2021/07/17 09:37:09;;;;;;;15.13;6.32;;;20.60;99.90;;;;;;5096306;28;20026;-85
2021/07/17 09:39:36;;;;;;;17.30;6.20;;;20.60;99.90;;;;;;5093089;28;20380;-83
2021/07/17 09:42:08;;;;;;;19.65;6.30;;;20.60;99.90;;;;;;5093323;28;20438;-83
2021/07/17 09:44:35;;;;;;;13.48;5.72;;;20.60;99.90;;;;;;5094693;28;20024;-83
2021/07/17 09:47:03;;;;;;;12.43;5.35;;;20.60;99.90;;;;;;5093117;28;20058;-83
2021/07/17 09:49:29;;;;;;;17.63;6.07;;;20.70;99.90;;;;;;5094906;28;20024;-83
2021/07/17 09:52:10;;;;;;;13.80;6.13;;;20.70;99.70;;;;;;5095118;28;20038;-84
2021/07/17 09:54:36;;;;;;;10.82;5.40;;;20.70;99.90;;;;;;5096053;28;20554;-84
2021/07/17 09:57:03;;;;;;;16.30;6.63;;;20.70;99.90;;;;;;5096954;28;20510;-84
2021/07/17 09:59:29;;;;;;;16.30;6.60;;;20.70;99.90;;;;;;5096906;28;20032;-84
2021/07/17 10:01:55;;;;;;;12.77;5.45;;;20.80;99.90;;;;;;5096761;28;20119;-84
2021/07/17 10:04:20;;;;;;;15.68;6.00;;;20.90;99.90;;;;;;5098565;28;20024;-84
2021/07/17 10:06:53;;;;;;;17.13;5.40;;;20.90;99.70;;;;;;5097519;28;20047;-84
2021/07/17 10:09:19;;;;;;;15.68;5.97;;;21.00;99.70;;;;;;5094994;28;20039;-85
2021/07/17 10:11:51;;;;;;;11.55;5.22;;;21.00;99.70;;;;;;5080753;28;20029;-85
2021/07/17 10:14:22;;;;;;;11.50;5.45;;;21.10;99.90;;;;;;5093433;28;20028;-84
2021/07/17 10:16:53;;;;;;;12.25;4.95;;;21.10;99.30;;;;;;5084114;28;20590;-84
2021/07/17 10:19:20;;;;;;;12.07;4.60;;;21.20;99.20;;;;;;5094594;28;20472;-84
2021/07/17 10:21:46;;;;;;;19.15;5.43;;;21.20;99.50;;;;;;5091177;28;20123;-84
2021/07/17 10:24:13;;;;;;;12.23;4.95;;;21.20;99.00;;;;;;5096968;28;20767;-85
2021/07/17 10:26:40;;;;;;;11.88;5.22;;;21.20;98.60;;;;;;5097968;28;20024;-84
2021/07/17 10:29:08;;;;;;;12.95;5.05;;;21.30;98.70;;;;;;5097176;28;20039;-84
2021/07/17 10:31:35;;;;;;;13.77;4.63;;;21.40;98.60;;;;;;5102471;28;20027;-85
2021/07/17 10:34:01;;;;;;;12.65;4.13;;;21.30;98.80;;;;;;5098467;28;20046;-84
2021/07/17 10:36:26;;;;;;;12.55;4.43;;;21.30;98.10;;;;;;5100115;28;20096;-85
2021/07/17 10:38:59;;;;;;;13.27;4.97;;;21.40;98.40;;;;;;5097557;28;20118;-84
2021/07/17 10:41:26;;;;;;;15.88;4.25;;;21.50;98.10;;;;;;5097970;28;20020;-84
2021/07/17 10:43:54;;;;;;;10.27;3.60;;;21.60;97.60;;;;;;5103562;28;20055;-84
2021/07/17 10:46:38;;;;;;;14.20;4.43;;;21.60;97.50;;;;;;5099328;28;20048;-85
2021/07/17 10:49:07;;;;;;;11.10;4.43;;;21.70;97.50;;;;;;5102065;28;20028;-84
2021/07/17 10:51:50;;;;;;;7.28;3.50;;;21.70;97.40;;;;;;5103104;28;20039;-85
2021/07/17 10:54:28;;;;;;;11.90;4.40;;;21.70;97.90;;;;;;5103092;28;20055;-84
2021/07/17 10:56:54;;;;;;;11.38;4.40;;;21.60;98.30;;;;;;5102847;28;20475;-85
2021/07/17 10:59:19;;;;;;;10.60;4.43;;;21.70;98.50;;;;;;5101195;28;20024;-85
2021/07/17 11:02:00;;;;;;;11.43;3.60;;;21.70;98.10;;;;;;5099806;28;20031;-84
2021/07/17 11:04:35;;;;;;;10.63;4.00;;;21.90;97.60;;;;;;5100742;28;20024;-84
2021/07/17 11:07:16;;;;;;;12.48;3.83;;;21.90;97.50;;;;;;5091814;28;20031;-84
2021/07/17 11:09:48;;;;;;;7.63;3.42;;;22.00;97.70;;;;;;5089518;28;20020;-84
2021/07/17 11:12:20;;;;;;;9.80;3.80;;;22.00;97.70;;;;;;5092753;28;20023;-84
2021/07/17 11:14:46;;;;;;;14.20;4.47;;;22.00;97.10;;;;;;5091658;28;20028;-84
2021/07/17 11:17:12;;;;;;;9.75;3.72;;;22.00;97.80;;;;;;5091019;28;20369;-84
2021/07/17 11:19:39;;;;;;;9.48;3.90;;;22.10;97.70;;;;;;5091848;28;20039;-84
2021/07/17 11:22:14;;;;;;;11.38;3.72;;;22.10;97.20;;;;;;5092888;28;20417;-84
2021/07/17 11:24:41;;;;;;;8.45;3.38;;;22.20;97.30;;;;;;5093902;28;20147;-83
2021/07/17 11:27:15;;;;;;;8.65;3.70;;;22.30;96.90;;;;;;5094413;28;20484;-84
2021/07/17 11:29:46;;;;;;;11.25;3.75;;;22.20;96.90;;;;;;5093781;28;20036;-83
2021/07/17 11:32:17;;;;;;;10.23;3.40;;;22.30;96.30;;;;;;5093755;28;20153;-84
2021/07/17 11:34:51;;;;;;;8.20;3.25;;;22.40;96.70;;;;;;5096458;28;20052;-84
2021/07/17 11:37:19;;;;;;;8.15;3.90;;;22.40;96.10;;;;;;5096619;28;20082;-84
2021/07/17 11:39:48;;;;;;;9.80;3.30;;;22.50;96.00;;;;;;5093492;28;20020;-84
2021/07/17 11:42:16;;;;;;;10.63;3.42;;;22.50;96.20;;;;;;5073545;28;20033;-84
2021/07/17 11:44:47;;;;;;;10.70;3.78;;;22.50;96.40;;;;;;5071991;28;20020;-84
2021/07/17 11:47:27;;;;;;;8.18;2.70;;;22.50;96.70;;;;;;5072530;28;20489;-85
2021/07/17 11:49:54;;;;;;;8.32;2.72;;;22.50;96.20;;;;;;5068937;28;20052;-86
2021/07/17 11:52:25;;;;;;;7.70;2.50;;;22.60;95.70;;;;;;5070149;28;20457;-85
2021/07/17 11:54:54;;;;;;;7.38;2.75;;;22.50;95.60;;;;;;5065090;28;20049;-86
2021/07/17 11:57:23;;;;;;;8.13;3.17;;;22.60;95.60;;;;;;5077189;22;20028;-90
2021/07/17 12:00:24;;;;;;;9.30;3.17;;;22.70;95.30;;;;;;5029700;28;20033;-91
2021/07/17 12:02:57;;;;;;;9.77;3.63;;;22.60;95.60;;;;;;4996928;28;20124;-91
2021/07/17 12:05:24;;;;;;;8.65;2.90;;;22.70;95.90;;;;;;5034161;28;20037;-91
2021/07/17 12:07:49;;;;;;;7.13;2.70;;;22.70;95.80;;;;;;5035101;28;20443;-88
2021/07/17 12:10:18;;;;;;;8.25;2.60;;;22.80;95.40;;;;;;5033150;28;20033;-91
2021/07/17 12:12:49;;;;;;;9.88;2.97;;;22.90;95.20;;;;;;5033705;28;20342;-89
2021/07/17 12:15:19;;;;;;;9.07;2.60;;;23.10;94.50;;;;;;5034008;28;20025;-89
2021/07/17 12:17:48;;;;;;;6.70;2.75;;;23.20;93.90;;;;;;5034146;28;20045;-89
2021/07/17 12:20:19;;;;;;;6.30;2.30;;;23.10;94.30;;;;;;5034043;28;20021;-89
2021/07/17 12:22:51;;;;;;;6.38;2.67;;;23.10;94.80;;;;;;5033344;28;20095;-90
2021/07/17 12:25:20;;;;;;;6.25;2.50;;;23.20;94.90;;;;;;5035419;28;20018;-91
2021/07/17 12:27:56;;;;;;;5.20;2.05;;;23.20;94.80;;;;;;5033908;28;20075;-91
2021/07/17 12:30:24;;;;;;;7.18;2.25;;;23.40;93.40;;;;;;5035443;28;20021;-90
2021/07/17 12:32:50;;;;;;;6.63;1.88;;;23.50;93.60;;;;;;5036391;28;20371;-90
2021/07/17 12:35:23;;;;;;;8.48;2.25;;;23.60;93.50;;;;;;5041518;28;20087;-92
2021/07/17 12:37:50;;;;;;;5.65;2.00;;;23.70;93.30;;;;;;5042464;28;20028;-89